Terrytown, Louisiana
Current Conditions -  °F | °C
As of 7:55 AM on Monday 22 Dec 2014 (Local Time) from KNBG Reporting Station
Haze Haze  
Wind Chill: 61°   Ceiling: 500
Heat Index: 61°   Visibility: 1mi
Dew Point: 59°   Wind: 3mph
Humidity: 93%   Direction: 60°ENE
Pressure: 29.85"   Gusts: NA
Location:  29.9°N, 90.03°W
Report Text: KNBG 221355Z 06003KT 1SM BR BKN005 OVC015CB 16/15 A2985 RMK AO2 RAE40 SLP106 VIS NE-E 1/2 CB N MOV NE T1 SET P0001 T01610150 $
Loading
Personal Weather Stations






























Interactive Weather Map New forecast layout! Learn more

10-Day Weather Forecast

Advertisements
Track Severe Weather on mobile